Terminal Aerodrome Forecast
Issued by NWS

Home | Current Version | Previous Version | Text Only | Print | Product List | Glossary On
Versions: 1 2 3 4 5 6 7 8 9 10 11 12 13
262
FTUS46 KPDT 100401 AAA
TAFYKM
TAF AMD
KYKM 100401Z 1004/1024 VRB03KT P6SM SCT250
     FM100600 36005KT 1SM BR OVC002
      TEMPO 1011/1015 1/4SM FZFG VV001
     FM101700 VRB03KT 2SM BR OVC005
     FM102000 00000KT P6SM OVC009=

USA.gov is the U.S. government's official web portal to all federal, state and local government web resources and services.